Coral Coast — WDF5120 — position and weather

sailwx.info

Track history (hours):
 
Tides and Currents Weather Stations Pressure Air Temp Water Temp Dewpoint Dewpoint Depression Visibility Wind Speed Wind Dir Waves Ship Positions

Coral Coast

Owner: Dann MarineTowing, LC., Chesapeake City, MD. More information available from US FCC via Universal Licensing System and Coast Guard Vessel Documentation Center.

Last reported at 2015-Mar-30 11:33 UTC. Time now 2015-Mar-31 12:40 UTC.
Position N 34°28' W 076°18'.

Length 70 m; draft 5.3 m.

Type: Tug. MMSI: 367459570.

Date/timePositionNaut miles runAvg speedWind from/ knotsBaromVisibWave heightAir tempDewpointWater temp
2015-Mar-30 11:33N 34°28' W 076°18'9 7.7
2015-Mar-30 10:20N 34°22' W 076°26'  
2015-Mar-22 17:08N 38°41' W 074°40'50 5.2
2015-Mar-22 07:31N 39°25' W 074°12'5 5.1
2015-Mar-22 06:33N 39°30' W 074°09'5 5.0
2015-Mar-22 05:33N 39°34' W 074°05'5 5.2
2015-Mar-22 04:33N 39°39' W 074°03'5 5.1
2015-Mar-22 03:33N 39°43' W 073°60'5 5.2
2015-Mar-22 02:32N 39°48' W 073°58'27 5.4
2015-Mar-21 21:29N 40°15' W 073°55'5 5.5
2015-Mar-21 20:31N 40°21' W 073°54'6 5.7
2015-Mar-21 19:28N 40°27' W 073°54'6 6.4
2015-Mar-21 18:33N 40°31' W 073°60'7 6.6
2015-Mar-21 17:33N 40°37' W 074°03'6 6.2
2015-Mar-21 16:33N 40°42' W 073°59'8 7.1
2015-Mar-21 15:26N 40°48' W 073°52'2 2.5
2015-Mar-21 14:33N 40°46' W 073°51'0 0.0
2015-Mar-21 11:21N 40°46' W 073°51'0 0.0
2015-Mar-21 08:18N 40°46' W 073°51'0 0.0
2015-Mar-21 06:11N 40°46' W 073°51'0 0.0
2015-Mar-21 04:29N 40°46' W 073°51'0 0.0
2015-Mar-21 02:29N 40°46' W 073°51'0 0.0
2015-Mar-21 00:22N 40°46' W 073°51'0 0.0
2015-Mar-20 21:25N 40°46' W 073°51'0 0.0
2015-Mar-20 20:31N 40°46' W 073°51'0 0.0
2015-Mar-20 19:07N 40°46' W 073°51'0 0.0
2015-Mar-20 17:18N 40°46' W 073°51'0 0.0
2015-Mar-20 16:11N 40°46' W 073°51'0 0.0
2015-Mar-20 15:16N 40°46' W 073°51'0 0.0
2015-Mar-20 14:25N 40°46' W 073°51'  
Track history (hours):
 
Tides and Currents Weather Stations Pressure Air Temp Water Temp Dewpoint Dewpoint Depression Visibility Wind Speed Wind Dir Waves Ship Positions

Coral Coast

Owner: Dann MarineTowing, LC., Chesapeake City, MD. More information available from US FCC via Universal Licensing System and Coast Guard Vessel Documentation Center.

Last reported at 2015-Mar-30 11:33 UTC. Time now 2015-Mar-31 12:40 UTC.
Position N 34°28' W 076°18'.

Length 70 m; draft 5.3 m.

Type: Tug. MMSI: 367459570.

Date/timePositionNaut miles runAvg speedWind from/ knotsBaromVisibWave heightAir tempDewpointWater temp
2015-Mar-30 11:33N 34°28' W 076°18'9 7.7
2015-Mar-30 10:20N 34°22' W 076°26'  
2015-Mar-22 17:08N 38°41' W 074°40'50 5.2
2015-Mar-22 07:31N 39°25' W 074°12'5 5.1
2015-Mar-22 06:33N 39°30' W 074°09'5 5.0
2015-Mar-22 05:33N 39°34' W 074°05'5 5.2
2015-Mar-22 04:33N 39°39' W 074°03'5 5.1
2015-Mar-22 03:33N 39°43' W 073°60'5 5.2
2015-Mar-22 02:32N 39°48' W 073°58'27 5.4
2015-Mar-21 21:29N 40°15' W 073°55'5 5.5
2015-Mar-21 20:31N 40°21' W 073°54'6 5.7
2015-Mar-21 19:28N 40°27' W 073°54'6 6.4
2015-Mar-21 18:33N 40°31' W 073°60'7 6.6
2015-Mar-21 17:33N 40°37' W 074°03'6 6.2
2015-Mar-21 16:33N 40°42' W 073°59'8 7.1
2015-Mar-21 15:26N 40°48' W 073°52'2 2.5
2015-Mar-21 14:33N 40°46' W 073°51'0 0.0
2015-Mar-21 11:21N 40°46' W 073°51'0 0.0
2015-Mar-21 08:18N 40°46' W 073°51'0 0.0
2015-Mar-21 06:11N 40°46' W 073°51'0 0.0
2015-Mar-21 04:29N 40°46' W 073°51'0 0.0
2015-Mar-21 02:29N 40°46' W 073°51'0 0.0
2015-Mar-21 00:22N 40°46' W 073°51'0 0.0
2015-Mar-20 21:25N 40°46' W 073°51'0 0.0
2015-Mar-20 20:31N 40°46' W 073°51'0 0.0
2015-Mar-20 19:07N 40°46' W 073°51'0 0.0
2015-Mar-20 17:18N 40°46' W 073°51'0 0.0
2015-Mar-20 16:11N 40°46' W 073°51'0 0.0
2015-Mar-20 15:16N 40°46' W 073°51'0 0.0
2015-Mar-20 14:25N 40°46' W 073°51'  

Dump ship's entire track history